createdAt,value
2018-11-06T00:00:30.395Z,80.56
2018-11-06T00:03:04.505Z,80.29
2018-11-06T00:05:33.789Z,80.65
2018-11-06T00:08:02.992Z,80.47
2018-11-06T00:10:32.756Z,80.71
2018-11-06T00:13:02.040Z,80.64
2018-11-06T00:15:31.261Z,80.90
2018-11-06T00:18:00.437Z,80.94
2018-11-06T00:20:29.903Z,81.19
2018-11-06T00:22:59.729Z,81.00
2018-11-06T00:25:28.956Z,81.50
2018-11-06T00:27:59.017Z,80.89
2018-11-06T00:30:28.667Z,81.00
2018-11-06T00:32:57.606Z,81.15
2018-11-06T00:35:26.438Z,80.99
2018-11-06T00:37:55.417Z,81.45
2018-11-06T00:40:24.275Z,81.43
2018-11-06T00:42:53.287Z,81.24
2018-11-06T00:45:22.249Z,81.04
2018-11-06T00:47:51.237Z,81.55
2018-11-06T00:50:20.268Z,80.99
2018-11-06T00:52:49.203Z,80.63
2018-11-06T00:55:18.077Z,80.99
2018-11-06T00:57:46.954Z,81.34
2018-11-06T01:00:18.038Z,81.25
2018-11-06T01:02:47.250Z,80.94
2018-11-06T01:05:17.328Z,80.84
2018-11-06T01:07:47.953Z,80.98
2018-11-06T01:10:17.104Z,81.04
2018-11-06T01:12:46.043Z,81.15
2018-11-06T01:15:16.117Z,81.34
2018-11-06T01:17:46.275Z,81.28
2018-11-06T01:20:16.801Z,81.05
2018-11-06T01:22:46.002Z,81.35
2018-11-06T01:25:15.423Z,80.91
2018-11-06T01:27:44.210Z,80.79
2018-11-06T01:30:17.300Z,81.40
2018-11-06T01:32:46.827Z,81.21
2018-11-06T01:35:16.321Z,81.77
2018-11-06T01:37:45.827Z,82.43
2018-11-06T01:40:16.931Z,82.16
2018-11-06T01:42:46.725Z,82.04
2018-11-06T01:45:17.063Z,82.18
2018-11-06T01:47:46.059Z,82.29
2018-11-06T01:50:16.138Z,82.21
2018-11-06T01:52:46.173Z,82.42
2018-11-06T01:55:15.201Z,82.50
2018-11-06T01:57:44.207Z,81.90
2018-11-06T02:00:15.318Z,81.45
2018-11-06T02:02:44.318Z,81.12
2018-11-06T02:05:14.254Z,80.95
2018-11-06T02:07:44.501Z,81.44
2018-11-06T02:10:14.263Z,81.63
2018-11-06T02:12:44.080Z,82.65
2018-11-06T02:15:13.004Z,83.27
2018-11-06T02:17:43.375Z,82.40
2018-11-06T02:20:13.350Z,82.36
2018-11-06T02:22:43.418Z,81.62
2018-11-06T02:25:12.852Z,82.15
2018-11-06T02:30:32.441Z,81.82
2018-11-06T02:33:01.388Z,81.14
2018-11-06T02:35:30.344Z,81.04
2018-11-06T02:37:59.302Z,81.21
2018-11-06T02:40:28.209Z,81.38
2018-11-06T02:42:57.110Z,82.07
2018-11-06T02:45:25.927Z,82.21
2018-11-06T02:47:54.889Z,82.14
2018-11-06T02:50:23.815Z,81.81
2018-11-06T02:52:53.312Z,81.96
2018-11-06T02:55:22.319Z,82.07
2018-11-06T02:57:51.234Z,82.06
2018-11-06T03:00:20.196Z,81.77
2018-11-06T03:02:49.079Z,82.01
2018-11-06T03:05:18.031Z,81.94
2018-11-06T03:07:46.880Z,82.13
2018-11-06T03:10:16.177Z,81.84
2018-11-06T03:12:45.594Z,81.94
2018-11-06T03:15:15.458Z,82.45
2018-11-06T03:17:44.919Z,82.08
2018-11-06T03:20:14.656Z,82.50
2018-11-06T03:22:44.126Z,82.22
2018-11-06T03:25:13.082Z,82.79
2018-11-06T03:27:41.972Z,82.67
2018-11-06T03:30:14.016Z,82.29
2018-11-06T03:32:42.942Z,82.61
2018-11-06T03:35:13.210Z,82.57
2018-11-06T03:37:42.430Z,82.26
2018-11-06T03:40:12.806Z,82.37
2018-11-06T03:42:42.803Z,82.46
2018-11-06T03:45:12.549Z,81.88
2018-11-06T03:47:41.551Z,82.13
2018-11-06T03:50:11.993Z,82.02
2018-11-06T03:52:41.008Z,82.53
2018-11-06T03:55:10.095Z,82.55
2018-11-06T03:57:39.240Z,82.39
2018-11-06T04:00:16.124Z,82.89
2018-11-06T04:02:45.482Z,82.17
2018-11-06T04:05:14.783Z,82.63
2018-11-06T04:07:43.702Z,82.41
2018-11-06T04:10:13.459Z,82.63
2018-11-06T04:12:42.900Z,82.24
2018-11-06T04:15:13.267Z,82.56
2018-11-06T04:17:43.084Z,82.26
2018-11-06T04:20:12.085Z,82.69
2018-11-06T04:22:42.077Z,82.27
2018-11-06T04:25:11.235Z,81.81
2018-11-06T04:27:40.176Z,81.82
2018-11-06T04:30:11.349Z,81.07
2018-11-06T04:32:42.627Z,82.06
2018-11-06T04:35:12.105Z,81.18
2018-11-06T04:37:41.752Z,81.20
2018-11-06T04:40:12.605Z,81.15
2018-11-06T04:42:41.490Z,81.48
2018-11-06T04:45:11.502Z,81.76
2018-11-06T04:47:40.381Z,82.05
2018-11-06T04:50:10.622Z,82.67
2018-11-06T04:52:39.524Z,82.20
2018-11-06T04:55:10.100Z,82.50
2018-11-06T04:57:38.925Z,82.65
2018-11-06T05:00:09.948Z,83.27
2018-11-06T05:02:39.075Z,83.42
2018-11-06T05:05:08.941Z,83.06
2018-11-06T05:07:39.012Z,83.47
2018-11-06T05:10:09.801Z,82.90
2018-11-06T05:12:38.902Z,83.29
2018-11-06T05:15:10.144Z,82.99
2018-11-06T05:17:39.215Z,82.85
2018-11-06T05:20:10.789Z,82.69
2018-11-06T05:22:39.586Z,82.84
2018-11-06T05:25:08.983Z,82.78
2018-11-06T05:27:38.200Z,82.47
2018-11-06T05:30:08.181Z,82.61
2018-11-06T05:32:37.296Z,82.52
2018-11-06T05:35:10.214Z,82.48
2018-11-06T05:37:40.989Z,82.63
2018-11-06T05:40:21.195Z,82.59
2018-11-06T05:42:50.677Z,82.72
2018-11-06T05:45:19.550Z,83.10
2018-11-06T05:47:48.852Z,82.73
2018-11-06T05:50:17.760Z,82.35
2018-11-06T05:52:46.744Z,82.21
2018-11-06T05:55:16.880Z,82.09
2018-11-06T05:57:45.744Z,82.39
2018-11-06T06:00:14.987Z,82.40
2018-11-06T06:02:43.951Z,82.34
2018-11-06T06:05:12.803Z,82.36
2018-11-06T06:07:41.672Z,82.20
2018-11-06T06:10:10.613Z,82.20
2018-11-06T06:12:39.849Z,82.17
2018-11-06T06:15:09.557Z,81.91
2018-11-06T06:17:38.442Z,82.18
2018-11-06T06:20:08.837Z,81.71
2018-11-06T06:22:38.601Z,81.98
2018-11-06T06:25:07.985Z,82.07
2018-11-06T06:27:38.370Z,81.90
2018-11-06T06:30:10.432Z,81.92
2018-11-06T06:32:39.432Z,81.93
2018-11-06T06:35:08.531Z,81.51
2018-11-06T06:37:40.966Z,81.12
2018-11-06T06:40:14.109Z,80.31
2018-11-06T06:42:43.535Z,80.24
2018-11-06T06:45:14.423Z,80.44
2018-11-06T06:47:43.281Z,79.70
2018-11-06T06:50:14.508Z,78.40
2018-11-06T06:52:43.959Z,77.00
2018-11-06T06:55:14.097Z,77.41
2018-11-06T06:57:44.001Z,77.40
2018-11-06T07:00:15.291Z,74.91
2018-11-06T07:02:44.259Z,69.69
2018-11-06T07:05:15.087Z,65.32
2018-11-06T07:07:44.703Z,63.90
2018-11-06T07:10:15.473Z,63.31
2018-11-06T07:12:45.427Z,61.59
2018-11-06T07:15:15.534Z,60.53
2018-11-06T07:17:45.334Z,59.31
2018-11-06T07:20:15.691Z,59.36
2018-11-06T07:22:44.681Z,58.30
2018-11-06T07:25:14.565Z,57.11
2018-11-06T07:27:52.152Z,56.30
2018-11-06T07:30:22.905Z,55.42
2018-11-06T07:32:55.620Z,55.75
2018-11-06T07:35:37.251Z,54.63
2018-11-06T07:38:06.943Z,53.15
2018-11-06T07:40:36.620Z,52.84
2018-11-06T07:43:10.351Z,53.50
2018-11-06T07:45:46.082Z,53.79
2018-11-06T07:48:16.584Z,53.70
2018-11-06T07:50:47.359Z,53.12
2018-11-06T07:53:16.552Z,53.17
2018-11-06T07:55:46.942Z,52.80
2018-11-06T07:58:16.260Z,53.34
2018-11-06T08:00:45.455Z,52.42
2018-11-06T08:03:15.536Z,53.16
2018-11-06T08:05:45.619Z,53.22
2018-11-06T08:08:15.478Z,50.84
2018-11-06T08:10:44.547Z,50.65
2018-11-06T08:13:13.564Z,50.00
2018-11-06T08:15:44.666Z,51.11
2018-11-06T08:18:17.248Z,51.03
2018-11-06T08:20:46.670Z,48.51
2018-11-06T08:23:16.425Z,47.65
2018-11-06T08:25:45.410Z,48.02
2018-11-06T08:28:14.373Z,47.80
2018-11-06T08:30:44.312Z,46.11
2018-11-06T08:33:13.262Z,45.61
2018-11-06T08:35:42.218Z,46.46
2018-11-06T08:38:13.826Z,46.87
2018-11-06T08:40:42.957Z,45.96
2018-11-06T08:43:12.081Z,45.53
2018-11-06T08:45:41.126Z,42.97
2018-11-06T08:48:10.736Z,43.67
2018-11-06T08:50:40.378Z,43.29
2018-11-06T08:53:11.585Z,42.50
2018-11-06T08:55:40.688Z,41.72
2018-11-06T08:58:09.877Z,40.56
2018-11-06T09:00:39.200Z,40.88
2018-11-06T09:03:08.178Z,41.12
2018-11-06T09:05:37.287Z,41.42
2018-11-06T09:08:06.614Z,40.63
2018-11-06T09:10:35.579Z,40.36
2018-11-06T09:13:05.703Z,41.45
2018-11-06T09:15:34.706Z,40.52
2018-11-06T09:18:06.480Z,40.91
2018-11-06T09:20:36.824Z,41.69
2018-11-06T09:23:05.758Z,41.71
2018-11-06T09:25:36.616Z,41.75
2018-11-06T09:28:05.679Z,40.52
2018-11-06T09:30:34.710Z,41.25
2018-11-06T09:33:05.176Z,40.76
2018-11-06T09:35:34.088Z,42.00
2018-11-06T09:38:03.260Z,41.43
2018-11-06T09:43:01.206Z,42.06
2018-11-06T09:45:30.246Z,42.28
2018-11-06T09:48:00.507Z,41.69
2018-11-06T09:50:31.633Z,41.96
2018-11-06T09:53:00.795Z,41.24
2018-11-06T09:55:30.724Z,40.53
2018-11-06T09:58:00.074Z,41.58
2018-11-06T10:00:30.534Z,41.44
2018-11-06T10:02:59.531Z,39.15
2018-11-06T10:05:29.171Z,40.60
2018-11-06T10:07:58.281Z,41.04
2018-11-06T10:10:30.836Z,41.46
2018-11-06T10:13:00.119Z,42.36
2018-11-06T10:15:31.257Z,42.50
2018-11-06T10:18:00.717Z,42.61
2018-11-06T10:20:29.764Z,41.95
2018-11-06T10:22:58.931Z,43.00
2018-11-06T10:25:27.816Z,43.08
2018-11-06T10:27:56.977Z,43.00
2018-11-06T10:30:26.490Z,42.65
2018-11-06T10:32:56.290Z,42.22
2018-11-06T10:35:26.823Z,42.57
2018-11-06T10:37:57.091Z,43.41
2018-11-06T10:40:33.002Z,43.27
2018-11-06T10:43:03.160Z,42.93
2018-11-06T10:45:32.744Z,44.06
2018-11-06T10:48:05.625Z,42.70
2018-11-06T10:50:35.351Z,43.35
2018-11-06T10:53:05.288Z,42.76
2018-11-06T10:55:34.263Z,41.07
2018-11-06T10:58:03.247Z,42.23
2018-11-06T11:00:37.693Z,42.13
2018-11-06T11:03:07.721Z,41.49
2018-11-06T11:05:36.730Z,42.27
2018-11-06T11:08:05.989Z,41.86
2018-11-06T11:10:34.923Z,40.25
2018-11-06T11:13:03.948Z,40.58
2018-11-06T11:15:33.242Z,40.44
2018-11-06T11:18:02.432Z,40.26
2018-11-06T11:20:31.340Z,39.73
2018-11-06T11:23:00.240Z,39.71
2018-11-06T11:28:19.351Z,39.87
2018-11-06T11:30:48.366Z,39.13
2018-11-06T11:33:17.334Z,39.51
2018-11-06T11:35:47.130Z,40.58
2018-11-06T11:38:16.414Z,40.40
2018-11-06T11:40:46.366Z,40.72
2018-11-06T11:43:15.273Z,40.72
2018-11-06T11:45:45.895Z,40.28
2018-11-06T11:48:15.703Z,40.42
2018-11-06T11:50:46.492Z,39.91
2018-11-06T11:53:15.415Z,39.26
2018-11-06T11:55:45.816Z,40.19
2018-11-06T11:58:17.258Z,39.61
2018-11-06T12:00:50.739Z,40.56
2018-11-06T12:03:21.435Z,40.51
2018-11-06T12:05:51.986Z,41.34
2018-11-06T12:08:21.833Z,40.84
2018-11-06T12:10:52.089Z,39.82
2018-11-06T12:13:22.088Z,40.55
2018-11-06T12:15:51.843Z,40.41
2018-11-06T12:18:20.966Z,40.73
2018-11-06T12:20:49.907Z,39.99
2018-11-06T12:23:19.062Z,40.94
2018-11-06T12:25:49.012Z,41.02
2018-11-06T12:28:18.731Z,40.45
2018-11-06T12:30:47.683Z,40.94
2018-11-06T12:33:16.729Z,40.51
2018-11-06T12:35:45.715Z,41.44
2018-11-06T12:38:14.952Z,42.00
2018-11-06T12:40:44.199Z,41.81
2018-11-06T12:43:13.569Z,41.39
2018-11-06T12:45:42.661Z,41.95
2018-11-06T12:48:12.847Z,41.82
2018-11-06T12:50:42.288Z,41.70
2018-11-06T12:53:11.761Z,41.18
2018-11-06T12:55:40.804Z,40.89
2018-11-06T12:58:10.516Z,41.25
2018-11-06T13:00:40.281Z,41.54
2018-11-06T13:03:09.620Z,41.27
2018-11-06T13:05:38.494Z,41.47
2018-11-06T13:08:07.620Z,42.30
2018-11-06T13:10:37.015Z,41.58
2018-11-06T13:13:06.785Z,41.06
2018-11-06T13:15:36.243Z,40.90
2018-11-06T13:18:06.232Z,41.59
2018-11-06T13:20:35.601Z,41.65
2018-11-06T13:23:05.134Z,41.30
2018-11-06T13:25:35.447Z,40.93
2018-11-06T13:28:04.819Z,41.70
2018-11-06T13:30:33.778Z,42.23
2018-11-06T13:33:02.912Z,42.50
2018-11-06T13:35:31.887Z,42.58
2018-11-06T13:38:01.182Z,42.97
2018-11-06T13:40:30.527Z,43.52
2018-11-06T13:43:01.064Z,42.56
2018-11-06T13:45:30.395Z,43.12
2018-11-06T13:47:59.739Z,43.60
2018-11-06T13:50:28.640Z,44.43
2018-11-06T13:52:58.025Z,45.41
2018-11-06T13:55:27.019Z,45.82
2018-11-06T13:57:57.128Z,45.35
2018-11-06T14:00:26.129Z,46.39
2018-11-06T14:02:55.715Z,46.27
2018-11-06T14:05:25.232Z,46.98
2018-11-06T14:07:54.992Z,47.02
2018-11-06T14:10:25.330Z,47.10
2018-11-06T14:12:56.881Z,47.41
2018-11-06T14:15:26.901Z,46.88
2018-11-06T14:17:56.886Z,46.63
2018-11-06T14:20:26.409Z,46.88
2018-11-06T14:22:56.394Z,47.14
2018-11-06T14:25:25.469Z,47.87
2018-11-06T14:27:54.462Z,47.77
2018-11-06T14:30:23.633Z,47.13
2018-11-06T14:32:52.546Z,48.12
2018-11-06T14:35:22.888Z,47.57
2018-11-06T14:37:53.329Z,47.52
2018-11-06T14:40:23.639Z,47.66
2018-11-06T14:42:54.143Z,47.56
2018-11-06T14:45:23.182Z,48.99
2018-11-06T14:47:52.241Z,48.41
2018-11-06T14:50:22.685Z,48.85
2018-11-06T14:52:51.518Z,49.97
2018-11-06T14:55:20.396Z,49.74
2018-11-06T14:57:52.332Z,50.58
2018-11-06T15:00:25.009Z,51.49
2018-11-06T15:02:54.821Z,52.27
2018-11-06T15:05:24.574Z,52.93
2018-11-06T15:07:53.400Z,52.35
2018-11-06T15:10:22.470Z,52.74
2018-11-06T15:12:52.042Z,53.67
2018-11-06T15:15:21.238Z,54.53
2018-11-06T15:17:50.258Z,55.02
2018-11-06T15:20:20.818Z,54.74
2018-11-06T15:22:49.861Z,55.48
2018-11-06T15:25:19.992Z,55.25
2018-11-06T15:27:50.403Z,55.67
2018-11-06T15:30:21.002Z,56.23
2018-11-06T15:32:52.488Z,56.47
2018-11-06T15:35:22.291Z,56.39
2018-11-06T15:37:52.256Z,56.71
2018-11-06T15:40:23.211Z,57.39
2018-11-06T15:42:53.388Z,57.63
2018-11-06T15:45:27.183Z,57.56
2018-11-06T15:47:57.458Z,58.03
2018-11-06T15:50:27.935Z,58.49
2018-11-06T15:52:56.954Z,58.60
2018-11-06T15:55:27.327Z,58.53
2018-11-06T15:57:59.677Z,58.96
2018-11-06T16:00:28.596Z,59.18
2018-11-06T16:02:59.736Z,60.02
2018-11-06T16:05:30.309Z,60.34
2018-11-06T16:07:59.748Z,60.42
2018-11-06T16:10:30.489Z,60.45
2018-11-06T16:13:02.605Z,60.96
2018-11-06T16:15:33.895Z,61.39
2018-11-06T16:18:04.588Z,61.36
2018-11-06T16:20:36.572Z,61.96
2018-11-06T16:23:07.259Z,62.44
2018-11-06T16:25:39.073Z,62.60
2018-11-06T16:28:10.592Z,62.84
2018-11-06T16:30:41.871Z,62.89
2018-11-06T16:36:04.657Z,63.18
2018-11-06T16:38:35.027Z,63.35
2018-11-06T16:41:06.092Z,63.11
2018-11-06T16:43:34.996Z,63.66
2018-11-06T16:46:04.007Z,63.49
2018-11-06T16:48:33.485Z,63.58
2018-11-06T16:51:02.526Z,64.04
2018-11-06T16:53:31.616Z,64.30
2018-11-06T16:56:00.494Z,64.36
2018-11-06T16:58:29.546Z,65.05
2018-11-06T17:00:58.671Z,65.11
2018-11-06T17:03:27.866Z,64.94
2018-11-06T17:05:56.962Z,64.79
2018-11-06T17:08:26.247Z,65.46
2018-11-06T17:10:55.640Z,65.21
2018-11-06T17:13:24.844Z,65.52
2018-11-06T17:15:54.929Z,65.65
2018-11-06T17:18:24.122Z,65.38
2018-11-06T17:20:53.590Z,65.73
2018-11-06T17:23:23.196Z,65.74
2018-11-06T17:25:52.515Z,66.09
2018-11-06T17:28:25.905Z,66.46
2018-11-06T17:30:55.866Z,66.28
2018-11-06T17:33:27.016Z,66.85
2018-11-06T17:35:56.201Z,66.48
2018-11-06T17:38:26.318Z,66.63
2018-11-06T17:40:57.024Z,66.99
2018-11-06T17:43:27.719Z,67.23
2018-11-06T17:45:57.402Z,67.37
2018-11-06T17:48:26.966Z,67.81
2018-11-06T17:51:04.377Z,67.82
2018-11-06T17:53:33.812Z,68.18
2018-11-06T17:56:02.668Z,68.26
2018-11-06T17:58:31.688Z,68.19
2018-11-06T18:01:00.584Z,68.43
2018-11-06T18:03:31.150Z,68.58
2018-11-06T18:06:01.073Z,68.79
2018-11-06T18:08:30.081Z,68.71
2018-11-06T18:10:58.968Z,69.06
2018-11-06T18:13:28.109Z,69.51
2018-11-06T18:15:57.209Z,69.79
2018-11-06T18:18:26.196Z,69.59
2018-11-06T18:20:55.040Z,69.90
2018-11-06T18:23:23.959Z,69.81
2018-11-06T18:25:53.015Z,70.31
2018-11-06T18:28:21.969Z,69.89
2018-11-06T18:30:50.936Z,70.66
2018-11-06T18:33:20.027Z,70.83
2018-11-06T18:35:49.040Z,71.02
2018-11-06T18:38:18.279Z,70.83
2018-11-06T18:40:47.238Z,70.97
2018-11-06T18:43:16.063Z,71.22
2018-11-06T18:45:45.079Z,71.43
2018-11-06T18:48:13.994Z,71.44
2018-11-06T18:50:43.047Z,71.84
2018-11-06T18:53:11.853Z,72.07
2018-11-06T18:55:40.841Z,72.22
2018-11-06T18:58:09.903Z,72.23
2018-11-06T19:00:39.122Z,72.37
2018-11-06T19:03:07.923Z,72.24
2018-11-06T19:05:37.144Z,72.66
2018-11-06T19:08:06.587Z,73.06
2018-11-06T19:10:36.991Z,72.53
2018-11-06T19:13:05.956Z,73.01
2018-11-06T19:15:34.996Z,73.49
2018-11-06T19:18:03.975Z,73.41
2018-11-06T19:20:33.706Z,73.40
2018-11-06T19:23:02.638Z,73.63
2018-11-06T19:25:31.607Z,73.64
2018-11-06T19:28:01.018Z,73.53
2018-11-06T19:30:30.249Z,74.04
2018-11-06T19:33:00.404Z,74.23
2018-11-06T19:35:29.640Z,74.17
2018-11-06T19:37:59.067Z,74.61
2018-11-06T19:40:28.662Z,74.85
2018-11-06T19:42:59.420Z,74.99
2018-11-06T19:45:28.813Z,74.76
2018-11-06T19:47:59.795Z,74.68
2018-11-06T19:50:28.902Z,74.90
2018-11-06T19:52:57.999Z,74.70
2018-11-06T19:55:26.865Z,74.75
2018-11-06T19:57:57.853Z,74.68
2018-11-06T20:00:32.347Z,74.87
2018-11-06T20:03:02.461Z,74.95
2018-11-06T20:05:33.633Z,74.82
2018-11-06T20:08:07.250Z,75.35
2018-11-06T20:10:46.103Z,75.24
2018-11-06T20:13:17.642Z,75.70
2018-11-06T20:15:47.693Z,75.78
2018-11-06T20:18:16.908Z,75.94
2018-11-06T20:20:45.911Z,76.17
2018-11-06T20:26:27.651Z,76.01
2018-11-06T20:28:56.591Z,76.35
2018-11-06T20:31:25.540Z,76.55
2018-11-06T20:33:54.792Z,76.77
2018-11-06T20:36:24.258Z,76.63
2018-11-06T20:38:53.677Z,76.60
2018-11-06T20:41:24.396Z,77.13
2018-11-06T20:43:53.616Z,77.35
2018-11-06T20:46:24.661Z,77.29
2018-11-06T20:48:54.309Z,77.18
2018-11-06T20:51:23.533Z,77.66
2018-11-06T20:53:53.192Z,77.68
2018-11-06T20:56:23.808Z,77.71
2018-11-06T20:58:53.074Z,77.82
2018-11-06T21:01:22.277Z,77.87
2018-11-06T21:03:51.629Z,77.88
2018-11-06T21:06:23.155Z,77.65
2018-11-06T21:09:01.771Z,78.52
2018-11-06T21:11:32.508Z,78.79
2018-11-06T21:14:02.253Z,78.61
2018-11-06T21:16:34.737Z,78.56
2018-11-06T21:19:04.242Z,78.68
2018-11-06T21:21:35.190Z,79.00
2018-11-06T21:24:05.858Z,78.58
2018-11-06T21:26:35.379Z,79.01
2018-11-06T21:29:04.744Z,78.80
2018-11-06T21:31:33.923Z,78.61
2018-11-06T21:34:03.179Z,79.38
2018-11-06T21:36:33.494Z,79.02
2018-11-06T21:39:03.158Z,78.44
2018-11-06T21:41:34.010Z,78.97
2018-11-06T21:44:04.207Z,78.93
2018-11-06T21:46:33.220Z,79.07
2018-11-06T21:49:02.762Z,79.50
2018-11-06T21:51:31.836Z,79.47
2018-11-06T21:54:00.828Z,79.63
2018-11-06T21:56:29.808Z,79.73
2018-11-06T21:59:04.073Z,79.38
2018-11-06T22:01:36.664Z,79.34
2018-11-06T22:04:10.662Z,79.53
2018-11-06T22:06:40.392Z,79.57
2018-11-06T22:09:09.935Z,79.38
2018-11-06T22:11:39.768Z,79.38
2018-11-06T22:14:08.738Z,79.58
2018-11-06T22:16:37.812Z,79.51
2018-11-06T22:19:06.829Z,79.49
2018-11-06T22:21:36.794Z,79.59
2018-11-06T22:24:14.674Z,79.62
2018-11-06T22:26:44.971Z,79.28
2018-11-06T22:29:15.436Z,79.75
2018-11-06T22:31:44.916Z,79.63
2018-11-06T22:34:15.379Z,79.84
2018-11-06T22:36:44.594Z,79.68
2018-11-06T22:39:13.556Z,79.64
2018-11-06T22:41:42.622Z,79.66
2018-11-06T22:44:11.799Z,79.54
2018-11-06T22:46:41.097Z,79.39
2018-11-06T22:49:10.206Z,79.41
2018-11-06T22:51:39.575Z,79.50
2018-11-06T22:54:08.484Z,79.20
2018-11-06T22:56:37.548Z,80.07
2018-11-06T22:59:06.858Z,80.07
2018-11-06T23:01:35.957Z,80.25
2018-11-06T23:04:04.832Z,80.33
2018-11-06T23:06:33.921Z,79.94
2018-11-06T23:09:02.879Z,80.12
2018-11-06T23:11:31.809Z,79.92
2018-11-06T23:14:00.632Z,79.76
2018-11-06T23:16:29.555Z,80.04
2018-11-06T23:18:58.424Z,80.02
2018-11-06T23:21:27.578Z,80.09
2018-11-06T23:23:56.521Z,80.34
2018-11-06T23:26:25.745Z,80.53
2018-11-06T23:28:54.597Z,80.02
2018-11-06T23:31:23.509Z,79.63
2018-11-06T23:33:52.468Z,79.73
2018-11-06T23:36:21.529Z,80.25
2018-11-06T23:38:51.106Z,80.76
2018-11-06T23:41:20.536Z,80.85
2018-11-06T23:43:49.520Z,81.04
2018-11-06T23:46:18.682Z,80.98
2018-11-06T23:48:47.630Z,81.07
2018-11-06T23:51:16.484Z,81.06
2018-11-06T23:53:47.034Z,81.22
2018-11-06T23:56:16.573Z,80.83
2018-11-06T23:58:48.313Z,80.87
